Current Weather

Centro Met. Antartico Pdte. E

Centro Met. Antartico Pdte. E, Antarctica (SCRM)

Report from: Thursday, July 18, 2024 2:00 PM UTC
Current time: Thursday, July 18, 2024 2:40 PM UTC

Nearby weather – Weather history – Daily summaries
Weather forecast

Temperature-3.0°C (26.6°F)
Wind chill-10.7°C (12.7°F)
Dew point-6.0°C (21.2°F)
Winds 18 kts (9.3 m/s, 20.7 mph) West-Southwest (250°)
Visibility6.2 mi. (10 km)
Clouds Few clouds 2,000 ft. (610 m)
Altimeter29.29 in.Hg (992 mB)
Relative humidity80 %
Density altitude-1,418 ft. (-432 m)
Remarks No significant changes expected in the next two hours
Flight conditions Visual Meteorological Conditions
Raw dataSCRM 181400Z 25018KT 9999 FEW020 M03/M06 Q0992 NOSIG
An error has occurred. This application may no longer respond until reloaded. Reload 🗙